Time;durP1;ratioP1;P1;durP2;ratioP2;P2;SDS_P1;SDS_P2;PMS_P1;PMS_P2;Temp;Humidity;BMP_temperature;BMP_pressure;BME280_temperature;BME280_humidity;BME280_pressure;Samples;Min_cycle;Max_cycle;Signal;HPM_P1;HPM_P2
2022/05/29 00:01:50;;;;;;;10.93;2.65;;;10.60;99.90;;;;;;5013085;28;20044;-73
2022/05/29 00:04:17;;;;;;;11.15;2.40;;;10.70;99.90;;;;;;5030216;28;20543;-73
2022/05/29 00:06:45;;;;;;;8.60;2.50;;;10.80;99.90;;;;;;5013362;28;20087;-74
2022/05/29 00:09:16;;;;;;;13.05;2.70;;;10.50;99.90;;;;;;5029932;28;20069;-73
2022/05/29 00:11:42;;;;;;;7.70;2.80;;;10.80;99.90;;;;;;5029519;28;20049;-74
2022/05/29 00:14:08;;;;;;;9.93;2.53;;;10.60;99.90;;;;;;5030007;28;20038;-76
2022/05/29 00:16:33;;;;;;;9.40;2.80;;;10.90;99.90;;;;;;5013111;28;20081;-74
2022/05/29 00:18:59;;;;;;;11.13;2.50;;;10.60;99.90;;;;;;5029940;28;20045;-73
2022/05/29 00:21:26;;;;;;;11.25;2.47;;;10.60;99.90;;;;;;5029808;28;20068;-73
2022/05/29 00:23:53;;;;;;;10.02;2.35;;;10.90;99.90;;;;;;5013054;28;20137;-74
2022/05/29 00:26:20;;;;;;;7.20;2.53;;;11.00;99.90;;;;;;5012715;28;20100;-73
2022/05/29 00:28:46;;;;;;;9.45;2.85;;;10.70;99.90;;;;;;5013384;28;20026;-73
2022/05/29 00:31:13;;;;;;;7.95;2.45;;;11.10;99.90;;;;;;5013400;28;20516;-74
2022/05/29 00:33:40;;;;;;;12.70;3.30;;;11.00;99.90;;;;;;5029347;28;20099;-73
2022/05/29 00:36:13;;;;;;;8.77;2.72;;;11.10;99.90;;;;;;4996905;28;20047;-73
2022/05/29 00:38:41;;;;;;;8.13;2.78;;;11.20;99.90;;;;;;5029412;28;20077;-74
2022/05/29 00:41:17;;;;;;;7.40;2.92;;;11.00;99.90;;;;;;5013758;28;20492;-75
2022/05/29 00:43:46;;;;;;;10.55;3.17;;;11.00;99.90;;;;;;5029306;28;20080;-76
2022/05/29 00:46:12;;;;;;;14.55;2.67;;;11.10;99.90;;;;;;5029650;28;20045;-77
2022/05/29 00:48:39;;;;;;;11.52;2.83;;;11.30;99.90;;;;;;5012682;28;20048;-76
2022/05/29 00:51:11;;;;;;;12.25;2.65;;;11.20;99.90;;;;;;5029619;28;20049;-73
2022/05/29 00:53:37;;;;;;;14.68;3.20;;;11.30;99.90;;;;;;5012671;28;20042;-73
2022/05/29 00:56:08;;;;;;;10.50;3.03;;;11.80;99.90;;;;;;5029687;28;20083;-73
2022/05/29 00:58:34;;;;;;;12.57;3.13;;;11.70;99.90;;;;;;5029243;28;20102;-75
2022/05/29 01:01:02;;;;;;;10.27;2.67;;;11.50;99.90;;;;;;4996793;28;20556;-73
2022/05/29 01:03:27;;;;;;;15.70;3.80;;;11.90;99.90;;;;;;5029072;28;20045;-74
2022/05/29 01:05:53;;;;;;;8.82;3.25;;;12.10;99.90;;;;;;5029174;28;20044;-73
2022/05/29 01:08:33;;;;;;;12.75;3.00;;;11.90;99.90;;;;;;5013114;28;20041;-73
2022/05/29 01:11:07;;;;;;;13.02;2.78;;;12.20;99.90;;;;;;5029365;28;20100;-73
2022/05/29 01:14:00;;;;;;;10.50;2.88;;;11.80;99.90;;;;;;5028920;28;20052;-73
2022/05/29 01:16:35;;;;;;;7.82;2.53;;;12.30;99.90;;;;;;5029308;28;20132;-73
2022/05/29 01:19:10;;;;;;;9.75;2.50;;;11.90;99.90;;;;;;5037003;28;20044;-72
2022/05/29 01:21:55;;;;;;;8.00;2.47;;;11.90;99.90;;;;;;5049379;28;20041;-73
2022/05/29 01:24:39;;;;;;;10.35;2.72;;;12.30;99.90;;;;;;5048839;28;20056;-73
2022/05/29 01:27:05;;;;;;;11.47;2.60;;;12.30;99.90;;;;;;5049050;28;20049;-72
2022/05/29 01:29:50;;;;;;;11.15;2.80;;;12.20;99.90;;;;;;5032195;28;20378;-73
2022/05/29 01:32:18;;;;;;;;;;;12.00;99.90;;;;;;5049053;28;20738;-72
2022/05/29 01:34:53;;;;;;;8.55;2.58;;;12.20;99.90;;;;;;5048389;28;19936;-74
2022/05/29 01:37:25;;;;;;;;;;;11.80;99.90;;;;;;5051227;28;20123;-75
2022/05/29 01:40:20;;;;;;;7.63;2.88;;;12.00;99.90;;;;;;5051436;28;20420;-73
2022/05/29 01:43:02;;;;;;;6.40;2.53;;;11.80;99.90;;;;;;5034862;28;20056;-72
2022/05/29 01:45:31;;;;;;;9.40;2.88;;;11.70;99.90;;;;;;5052392;28;20148;-73
2022/05/29 01:48:10;;;;;;;8.38;2.60;;;12.10;99.90;;;;;;5052038;28;20098;-74
2022/05/29 01:50:55;;;;;;;10.43;2.83;;;11.60;99.90;;;;;;5035211;28;20784;-74
2022/05/29 01:53:26;;;;;;;12.90;3.28;;;11.70;99.90;;;;;;5035781;28;20366;-74
2022/05/29 01:55:58;;;;;;;10.10;2.88;;;11.90;99.90;;;;;;5052103;28;20076;-75
2022/05/29 01:58:36;;;;;;;10.38;2.83;;;12.10;99.90;;;;;;5052315;28;20049;-75
2022/05/29 02:01:04;;;;;;;12.68;3.38;;;11.80;99.90;;;;;;5035820;28;20453;-72
2022/05/29 02:03:39;;;;;;;9.32;3.05;;;12.20;99.90;;;;;;5052218;28;20053;-74
2022/05/29 02:06:17;;;;;;;10.18;3.15;;;12.30;99.90;;;;;;5035420;28;20044;-74
2022/05/29 02:08:52;;;;;;;7.38;2.40;;;11.80;99.90;;;;;;5051328;28;20041;-73
2022/05/29 02:11:26;;;;;;;14.55;3.42;;;12.30;99.90;;;;;;5051840;28;20389;-75
2022/05/29 02:14:02;;;;;;;11.82;4.22;;;12.30;99.90;;;;;;5051603;28;20065;-72
2022/05/29 02:16:30;;;;;;;8.85;3.25;;;12.20;99.90;;;;;;5051807;28;20084;-73
2022/05/29 02:19:10;;;;;;;10.50;3.03;;;12.30;99.90;;;;;;5051596;28;20033;-74
2022/05/29 02:21:42;;;;;;;10.85;3.20;;;12.20;99.90;;;;;;5034920;28;20131;-74
2022/05/29 02:24:15;;;;;;;9.43;2.70;;;12.00;99.90;;;;;;5035388;28;20762;-73
2022/05/29 02:26:46;;;;;;;10.00;2.63;;;12.00;99.90;;;;;;5034467;28;20044;-72
2022/05/29 02:29:13;;;;;;;5.90;2.30;;;12.10;99.90;;;;;;5035173;28;20089;-73
2022/05/29 02:32:40;;;;;;;12.27;2.60;;;12.40;99.90;;;;;;5051341;28;20045;-72
2022/05/29 02:35:17;;;;;;;8.38;2.53;;;12.00;99.90;;;;;;4993968;28;20076;-73
2022/05/29 02:38:14;;;;;;;10.55;2.45;;;12.20;99.90;;;;;;4994077;28;20045;-73
2022/05/29 02:40:48;;;;;;;7.70;2.88;;;12.30;99.90;;;;;;5019913;28;20053;-73
2022/05/29 02:43:27;;;;;;;11.10;2.50;;;12.00;99.90;;;;;;5035247;28;20170;-72
2022/05/29 02:46:15;;;;;;;9.48;3.10;;;11.70;99.90;;;;;;5051219;28;20188;-74
2022/05/29 02:48:46;;;;;;;8.85;2.80;;;11.90;99.90;;;;;;5033485;28;20037;-74
2022/05/29 02:51:26;;;;;;;10.25;2.40;;;11.60;99.90;;;;;;5051658;28;20040;-77
2022/05/29 02:53:52;;;;;;;7.95;2.92;;;12.60;99.90;;;;;;5051031;28;20482;-75
2022/05/29 02:56:18;;;;;;;9.43;2.63;;;11.90;99.90;;;;;;5051204;28;20103;-75
2022/05/29 02:58:50;;;;;;;11.13;2.80;;;11.90;99.90;;;;;;5034328;28;20481;-76
2022/05/29 03:01:38;;;;;;;10.05;2.78;;;12.70;99.90;;;;;;5051552;28;20037;-75
2022/05/29 03:04:25;;;;;;;10.93;2.67;;;12.00;99.90;;;;;;5051664;28;20053;-76
2022/05/29 03:07:09;;;;;;;10.15;3.10;;;12.60;99.90;;;;;;5050601;28;20049;-74
2022/05/29 03:09:40;;;;;;;9.02;2.50;;;12.90;99.90;;;;;;5034482;28;20041;-74
2022/05/29 03:12:35;;;;;;;15.63;4.22;;;12.10;99.90;;;;;;5051088;28;20235;-74
2022/05/29 03:15:52;;;;;;;8.30;2.90;;;12.30;99.90;;;;;;5034291;28;20131;-75
2022/05/29 03:18:17;;;;;;;;;;;12.60;99.90;;;;;;5017248;28;20044;-75
2022/05/29 03:21:03;;;;;;;12.88;2.88;;;12.80;99.90;;;;;;5050540;28;19932;-77
2022/05/29 03:24:00;;;;;;;9.38;2.42;;;12.80;99.90;;;;;;5034434;28;20111;-76
2022/05/29 03:26:46;;;;;;;7.72;2.40;;;12.70;99.90;;;;;;5050377;28;20441;-77
2022/05/29 03:29:13;;;;;;;;;;;13.30;99.90;;;;;;5051558;28;20036;-77
2022/05/29 03:31:41;;;;;;;5.80;2.22;;;13.40;99.90;;;;;;5050813;28;19917;-76
2022/05/29 03:34:08;;;;;;;9.77;2.20;;;13.30;99.90;;;;;;5017966;28;20049;-76
2022/05/29 03:36:33;;;;;;;6.45;2.20;;;13.30;99.90;;;;;;5017588;28;20226;-75
2022/05/29 03:38:59;;;;;;;6.07;2.17;;;12.40;99.90;;;;;;5033573;28;20095;-75
2022/05/29 03:41:44;;;;;;;9.95;2.60;;;12.70;99.90;;;;;;5017659;28;20113;-75
2022/05/29 03:44:11;;;;;;;11.35;2.50;;;12.60;99.90;;;;;;5034341;28;20037;-74
2022/05/29 03:46:39;;;;;;;10.80;2.42;;;12.20;99.90;;;;;;5033986;28;20037;-77
2022/05/29 03:49:06;;;;;;;9.80;2.40;;;12.70;99.90;;;;;;5033743;28;20041;-77
2022/05/29 03:51:32;;;;;;;6.70;2.05;;;12.10;99.90;;;;;;5017334;28;20094;-77
2022/05/29 03:53:58;;;;;;;8.50;2.35;;;12.00;99.90;;;;;;5033352;28;20040;-76
2022/05/29 03:56:23;;;;;;;10.63;2.38;;;12.60;99.90;;;;;;5033506;28;20118;-78
2022/05/29 03:58:49;;;;;;;11.82;2.47;;;12.60;99.90;;;;;;5033627;28;20048;-76
2022/05/29 04:01:15;;;;;;;8.75;2.25;;;12.60;99.90;;;;;;5017493;28;20044;-74
2022/05/29 04:03:40;;;;;;;12.52;2.85;;;12.10;99.90;;;;;;5017342;28;20480;-78
2022/05/29 04:06:06;;;;;;;9.45;2.05;;;12.60;99.90;;;;;;5016509;28;20401;-76
2022/05/29 04:14:02;;;;;;;12.95;3.25;;;12.10;99.90;;;;;;5049628;28;20088;-76
2022/05/29 04:16:27;;;;;;;9.38;2.00;;;12.20;99.90;;;;;;5016917;28;20099;-76
2022/05/29 04:18:53;;;;;;;9.45;2.03;;;12.60;99.90;;;;;;5032993;28;20075;-75
2022/05/29 04:21:19;;;;;;;11.90;2.65;;;11.90;99.90;;;;;;5032950;28;20041;-75
2022/05/29 04:23:44;;;;;;;7.90;2.05;;;12.40;99.90;;;;;;5033003;28;20485;-75
2022/05/29 04:26:15;;;;;;;9.75;2.20;;;12.60;99.90;;;;;;5049879;28;20047;-74
2022/05/29 04:28:42;;;;;;;11.48;2.00;;;12.50;99.90;;;;;;5049560;28;20041;-74
2022/05/29 04:31:08;;;;;;;7.70;2.08;;;12.00;99.90;;;;;;5049324;28;20076;-74
2022/05/29 04:33:34;;;;;;;11.02;2.70;;;12.40;99.90;;;;;;5017031;28;20076;-75
2022/05/29 04:35:59;;;;;;;10.10;2.17;;;12.50;99.90;;;;;;5049284;28;20041;-75
2022/05/29 04:38:27;;;;;;;9.93;2.15;;;11.90;99.90;;;;;;5049672;28;20133;-75
2022/05/29 04:40:54;;;;;;;9.52;1.92;;;11.90;99.90;;;;;;5016428;28;20041;-74
2022/05/29 04:43:20;;;;;;;9.98;2.22;;;11.70;99.90;;;;;;5032829;28;20500;-74
2022/05/29 04:45:47;;;;;;;11.57;2.58;;;11.70;99.90;;;;;;5049475;28;20462;-75
2022/05/29 04:48:16;;;;;;;11.80;2.42;;;11.80;99.90;;;;;;5049382;28;20071;-74
2022/05/29 04:50:42;;;;;;;11.95;3.47;;;12.20;99.90;;;;;;5049269;28;20401;-75
2022/05/29 04:53:08;;;;;;;12.98;3.00;;;11.90;99.90;;;;;;5049216;28;20129;-75
2022/05/29 04:55:35;;;;;;;9.27;2.58;;;11.60;99.90;;;;;;5032982;28;20528;-75
2022/05/29 04:58:01;;;;;;;8.02;2.08;;;12.10;99.90;;;;;;5048696;28;20044;-74
2022/05/29 05:00:26;;;;;;;11.90;2.60;;;11.60;99.90;;;;;;5032401;28;20041;-75
2022/05/29 05:02:52;;;;;;;6.55;1.58;;;12.00;99.90;;;;;;5048547;28;20037;-74
2022/05/29 05:05:18;;;;;;;10.82;2.00;;;11.60;99.90;;;;;;5048650;28;20037;-76
2022/05/29 05:07:44;;;;;;;8.23;2.10;;;12.00;99.90;;;;;;5048187;28;20041;-74
2022/05/29 05:10:12;;;;;;;10.45;2.42;;;11.50;99.90;;;;;;5048204;28;20064;-73
2022/05/29 05:12:38;;;;;;;15.43;2.60;;;11.50;99.90;;;;;;5051667;28;20101;-74
2022/05/29 05:15:05;;;;;;;9.52;2.80;;;11.60;99.90;;;;;;5035818;28;20051;-75
2022/05/29 05:17:31;;;;;;;11.65;2.25;;;11.90;99.90;;;;;;5052670;28;20126;-74
2022/05/29 05:19:56;;;;;;;14.73;2.10;;;12.00;99.90;;;;;;5035527;28;20082;-74
2022/05/29 05:22:22;;;;;;;13.52;2.50;;;11.60;99.90;;;;;;5036235;28;20076;-75
2022/05/29 05:24:48;;;;;;;13.32;3.15;;;12.10;99.90;;;;;;5052620;28;20045;-74
2022/05/29 05:27:15;;;;;;;16.48;3.47;;;11.80;99.90;;;;;;5035891;28;20045;-76
2022/05/29 05:29:41;;;;;;;8.75;2.45;;;12.10;99.90;;;;;;5036442;28;20127;-75
2022/05/29 05:32:07;;;;;;;14.43;2.50;;;11.60;99.90;;;;;;5052809;28;20412;-74
2022/05/29 05:34:33;;;;;;;12.75;2.42;;;11.60;99.90;;;;;;5019559;28;20036;-74
2022/05/29 05:36:58;;;;;;;12.18;2.75;;;11.70;99.90;;;;;;5052405;28;20132;-74
2022/05/29 05:39:25;;;;;;;17.42;3.63;;;11.60;99.90;;;;;;5052754;28;20041;-73
2022/05/29 05:41:50;;;;;;;8.70;2.17;;;11.70;99.90;;;;;;5052738;28;20428;-74
2022/05/29 05:44:16;;;;;;;8.98;2.20;;;11.90;99.90;;;;;;5052290;28;20048;-73
2022/05/29 05:46:47;;;;;;;8.55;1.98;;;11.90;99.90;;;;;;5052215;28;20045;-74
2022/05/29 05:49:18;;;;;;;7.45;2.35;;;11.50;99.90;;;;;;5035468;28;20039;-73
2022/05/29 05:51:45;;;;;;;8.93;1.92;;;11.90;99.90;;;;;;5052436;28;20106;-74
2022/05/29 05:54:12;;;;;;;12.55;2.55;;;11.60;99.90;;;;;;5052039;28;20167;-75
2022/05/29 05:56:41;;;;;;;14.15;2.70;;;11.70;99.90;;;;;;5052312;28;20405;-75
2022/05/29 05:59:07;;;;;;;9.70;2.80;;;12.20;99.90;;;;;;5051970;28;20037;-75
2022/05/29 06:01:33;;;;;;;9.70;2.35;;;11.70;99.90;;;;;;5052376;28;20040;-74
2022/05/29 06:03:59;;;;;;;11.00;2.70;;;11.80;99.90;;;;;;5035381;28;20099;-75
2022/05/29 06:06:30;;;;;;;13.57;2.58;;;12.10;99.90;;;;;;5036288;28;20492;-76
2022/05/29 06:08:57;;;;;;;7.55;2.00;;;11.90;99.90;;;;;;5035020;28;20069;-76
2022/05/29 06:11:27;;;;;;;9.98;2.22;;;12.20;99.90;;;;;;5035471;28;20473;-73
2022/05/29 06:13:54;;;;;;;9.52;2.28;;;11.90;99.90;;;;;;5051770;28;20557;-76
2022/05/29 06:16:20;;;;;;;10.07;2.50;;;12.20;99.90;;;;;;5050854;28;20045;-75
2022/05/29 06:18:46;;;;;;;10.05;1.95;;;12.20;99.90;;;;;;5035096;28;20049;-76
2022/05/29 06:21:12;;;;;;;8.57;1.80;;;12.20;99.90;;;;;;5034563;28;20110;-76
2022/05/29 06:23:38;;;;;;;8.45;1.90;;;11.90;99.90;;;;;;5034096;28;20045;-75
2022/05/29 06:26:12;;;;;;;14.40;2.28;;;11.80;99.90;;;;;;5034666;28;20049;-75
2022/05/29 06:28:38;;;;;;;10.00;1.92;;;12.10;99.90;;;;;;5034940;28;20489;-75
2022/05/29 06:31:05;;;;;;;7.05;2.00;;;12.00;99.90;;;;;;5034516;28;20044;-75
2022/05/29 06:33:31;;;;;;;8.10;1.88;;;11.70;99.90;;;;;;5051628;28;20041;-77
2022/05/29 06:36:07;;;;;;;9.07;1.98;;;12.00;99.90;;;;;;5034713;28;20365;-76
2022/05/29 06:38:33;;;;;;;8.13;1.73;;;11.90;99.90;;;;;;5034850;28;20546;-77
2022/05/29 06:40:59;;;;;;;8.50;2.47;;;11.60;99.90;;;;;;5017454;28;20045;-75
2022/05/29 06:43:25;;;;;;;7.93;2.00;;;11.50;99.90;;;;;;5034934;28;20477;-75
2022/05/29 06:45:59;;;;;;;9.43;2.15;;;11.50;99.90;;;;;;5035008;28;20045;-74
2022/05/29 06:48:25;;;;;;;5.35;1.80;;;11.20;99.90;;;;;;5034884;28;20040;-76
2022/05/29 06:50:51;;;;;;;5.57;1.73;;;11.40;99.90;;;;;;5051526;28;20041;-76
2022/05/29 06:53:17;;;;;;;8.00;1.48;;;11.50;99.90;;;;;;5017790;28;20051;-75
2022/05/29 06:55:56;;;;;;;5.97;1.60;;;11.50;99.90;;;;;;5050907;28;20040;-75
2022/05/29 06:58:23;;;;;;;6.97;2.00;;;11.30;99.90;;;;;;5033766;28;20036;-76
2022/05/29 07:09:04;;;;;;;6.25;1.50;;;11.10;99.90;;;;;;5050448;28;20094;-76
2022/05/29 07:11:34;;;;;;;7.47;1.60;;;11.20;99.90;;;;;;5050412;28;20481;-76
2022/05/29 07:14:02;;;;;;;5.13;1.60;;;11.00;99.90;;;;;;5050535;28;20043;-77
2022/05/29 07:16:28;;;;;;;8.32;1.70;;;11.20;99.90;;;;;;5017878;28;20052;-75
2022/05/29 07:18:54;;;;;;;4.40;1.05;;;11.00;99.90;;;;;;5017409;28;20056;-75
2022/05/29 07:21:21;;;;;;;8.40;1.48;;;10.90;99.90;;;;;;5017365;28;20127;-74
2022/05/29 07:23:47;;;;;;;3.97;1.23;;;11.10;99.90;;;;;;5034002;28;20052;-75
2022/05/29 07:26:12;;;;;;;8.57;2.65;;;11.10;99.90;;;;;;5016967;28;20037;-75
2022/05/29 07:28:38;;;;;;;6.55;1.30;;;11.00;99.90;;;;;;5034004;28;20408;-76
2022/05/29 07:31:04;;;;;;;6.82;1.40;;;10.70;99.90;;;;;;5033494;28;20400;-77
2022/05/29 07:33:30;;;;;;;8.85;1.80;;;10.80;99.90;;;;;;5038963;28;20047;-77
2022/05/29 07:35:56;;;;;;;9.77;1.80;;;11.10;99.90;;;;;;5055617;28;20052;-76
2022/05/29 07:38:22;;;;;;;8.90;1.90;;;10.90;99.90;;;;;;5033394;28;20084;-77
2022/05/29 07:40:48;;;;;;;6.57;2.20;;;11.30;99.90;;;;;;5033801;28;20036;-77
2022/05/29 07:43:20;;;;;;;8.98;1.92;;;11.20;99.90;;;;;;5017296;28;20060;-76
2022/05/29 07:45:52;;;;;;;14.10;2.30;;;11.30;99.90;;;;;;5050292;28;20048;-77
2022/05/29 07:48:20;;;;;;;7.13;1.80;;;11.80;99.90;;;;;;5049597;28;20033;-76
2022/05/29 07:50:47;;;;;;;9.38;1.80;;;11.60;99.90;;;;;;5050143;28;20120;-76
2022/05/29 07:53:13;;;;;;;10.25;1.80;;;12.10;99.90;;;;;;5032999;28;20049;-74
2022/05/29 07:55:39;;;;;;;4.18;1.40;;;11.80;99.90;;;;;;5033828;28;20484;-75
2022/05/29 07:58:06;;;;;;;9.98;2.15;;;12.20;99.90;;;;;;5033028;28;20041;-74
2022/05/29 08:00:34;;;;;;;8.77;1.40;;;12.10;99.90;;;;;;5033339;28;20115;-74
2022/05/29 08:03:00;;;;;;;7.13;1.95;;;12.20;99.90;;;;;;5033451;28;20347;-74
2022/05/29 08:05:27;;;;;;;2.92;1.20;;;12.10;99.90;;;;;;5032618;28;20076;-75
2022/05/29 08:07:53;;;;;;;3.70;1.65;;;11.60;99.90;;;;;;5033239;28;20036;-74
2022/05/29 08:10:20;;;;;;;4.85;1.20;;;11.90;99.90;;;;;;5032714;28;20110;-75
2022/05/29 08:12:46;;;;;;;8.90;1.77;;;11.70;99.90;;;;;;5033037;28;20052;-75
2022/05/29 08:15:12;;;;;;;4.65;1.20;;;11.30;99.90;;;;;;5049248;28;20103;-74
2022/05/29 08:17:39;;;;;;;8.75;1.50;;;11.30;99.90;;;;;;5033484;28;20095;-73
2022/05/29 08:20:06;;;;;;;4.15;1.00;;;11.30;99.90;;;;;;5049641;28;20472;-75
2022/05/29 08:22:31;;;;;;;4.03;1.45;;;11.40;99.90;;;;;;5049622;28;20120;-75
2022/05/29 08:30:48;;;;;;;10.40;2.83;;;11.50;99.90;;;;;;5049559;28;20041;-73
2022/05/29 08:33:20;;;;;;;6.43;1.95;;;11.20;99.90;;;;;;5049684;28;20052;-74
2022/05/29 08:35:48;;;;;;;8.10;1.98;;;11.60;99.90;;;;;;5049521;28;20044;-75
2022/05/29 08:38:16;;;;;;;9.18;1.90;;;11.20;99.90;;;;;;5032537;28;20045;-74
2022/05/29 08:40:52;;;;;;;8.70;1.70;;;11.60;99.90;;;;;;5049487;28;20456;-75
2022/05/29 08:43:37;;;;;;;6.70;1.48;;;11.40;99.90;;;;;;5049448;28;20400;-76
2022/05/29 08:46:14;;;;;;;7.85;1.75;;;11.90;99.90;;;;;;5049662;28;20041;-74
2022/05/29 08:48:39;;;;;;;8.80;1.73;;;11.90;99.90;;;;;;5037188;28;20563;-73
2022/05/29 08:51:35;;;;;;;3.63;1.30;;;11.90;99.90;;;;;;5053654;28;20048;-75
2022/05/29 08:54:12;;;;;;;7.28;2.10;;;12.40;99.90;;;;;;5053224;28;20037;-74
2022/05/29 08:57:03;;;;;;;6.72;2.22;;;12.50;99.90;;;;;;5052650;28;20060;-75
2022/05/29 08:59:41;;;;;;;4.78;1.33;;;12.60;99.90;;;;;;5052719;28;20083;-75
2022/05/29 09:02:44;;;;;;;4.35;1.17;;;12.50;99.90;;;;;;5053213;28;20043;-75
2022/05/29 09:05:18;;;;;;;3.28;1.42;;;12.10;99.90;;;;;;5052778;28;20037;-77
2022/05/29 09:07:45;;;;;;;7.32;1.67;;;12.10;99.90;;;;;;5037124;28;20060;-76
2022/05/29 09:10:19;;;;;;;6.00;1.48;;;12.20;99.90;;;;;;5052680;28;20068;-76
2022/05/29 09:12:50;;;;;;;8.25;1.33;;;12.00;99.90;;;;;;5053290;28;20045;-74
2022/05/29 09:15:38;;;;;;;6.10;1.42;;;11.90;99.90;;;;;;5052463;28;20068;-75
2022/05/29 09:18:13;;;;;;;6.68;1.55;;;11.70;99.90;;;;;;5053518;28;20041;-76
2022/05/29 09:20:48;;;;;;;4.18;1.02;;;11.80;99.90;;;;;;5052870;28;20045;-75
2022/05/29 09:23:20;;;;;;;4.57;1.30;;;11.30;99.90;;;;;;5052729;28;20370;-75
2022/05/29 09:25:46;;;;;;;3.40;1.40;;;11.10;99.90;;;;;;5052384;28;20049;-72
2022/05/29 09:28:18;;;;;;;7.78;1.63;;;11.40;99.90;;;;;;5052065;28;20122;-74
2022/05/29 09:30:45;;;;;;;3.60;1.30;;;11.10;99.90;;;;;;5052666;28;20049;-74
2022/05/29 09:33:28;;;;;;;11.13;1.40;;;11.60;99.90;;;;;;5036448;28;20052;-74
2022/05/29 09:36:17;;;;;;;7.05;1.52;;;11.40;99.90;;;;;;5052607;28;20064;-74
2022/05/29 09:38:48;;;;;;;6.30;1.85;;;11.50;99.90;;;;;;5052907;28;20428;-75
2022/05/29 09:41:34;;;;;;;5.70;1.50;;;11.80;99.90;;;;;;5035677;28;20049;-74
2022/05/29 09:44:05;;;;;;;2.20;1.30;;;12.00;99.90;;;;;;5052107;28;20057;-75
2022/05/29 09:46:43;;;;;;;6.90;1.20;;;12.00;99.90;;;;;;5035330;28;20037;-74
2022/05/29 09:49:49;;;;;;;5.65;1.20;;;12.10;99.90;;;;;;5052724;28;20366;-73
2022/05/29 09:52:15;;;;;;;5.88;1.95;;;11.80;99.90;;;;;;5063447;28;20402;-73
2022/05/29 09:54:52;;;;;;;3.97;1.15;;;12.00;99.90;;;;;;5035714;28;20037;-74
2022/05/29 09:57:31;;;;;;;7.40;1.30;;;12.40;99.90;;;;;;5051319;28;20133;-74
2022/05/29 10:00:08;;;;;;;4.55;1.30;;;12.20;99.90;;;;;;5052181;28;20064;-74
2022/05/29 10:02:45;;;;;;;8.73;1.67;;;12.70;99.90;;;;;;5035386;28;20151;-73
2022/05/29 10:05:38;;;;;;;5.63;1.30;;;12.70;99.90;;;;;;5035397;28;20045;-74
2022/05/29 10:08:26;;;;;;;3.72;1.55;;;12.40;99.90;;;;;;5052325;28;20048;-74
2022/05/29 10:10:52;;;;;;;6.05;1.20;;;12.20;99.90;;;;;;5035433;28;20048;-74
2022/05/29 10:13:39;;;;;;;6.57;1.30;;;12.40;99.90;;;;;;5051591;28;20045;-75
2022/05/29 10:16:06;;;;;;;7.55;2.10;;;12.20;99.90;;;;;;5051767;28;20123;-74
2022/05/29 10:18:35;;;;;;;5.65;1.40;;;11.90;99.90;;;;;;5051757;28;20370;-74
2022/05/29 10:21:10;;;;;;;6.68;1.30;;;12.20;99.90;;;;;;5051941;28;20047;-75
2022/05/29 10:23:37;;;;;;;5.28;1.33;;;12.20;99.90;;;;;;5051592;28;20052;-74
2022/05/29 10:26:06;;;;;;;4.47;1.10;;;12.30;99.90;;;;;;5051382;28;20037;-73
2022/05/29 10:28:36;;;;;;;7.53;1.85;;;12.00;99.90;;;;;;5051348;28;20033;-74
2022/05/29 10:31:05;;;;;;;5.72;1.38;;;12.00;99.90;;;;;;5052037;28;20456;-74
2022/05/29 10:33:33;;;;;;;6.60;1.42;;;12.50;99.90;;;;;;5051409;28;20484;-73
2022/05/29 10:36:13;;;;;;;7.22;1.20;;;12.20;99.90;;;;;;5051784;28;20033;-74
2022/05/29 10:38:40;;;;;;;7.18;1.70;;;12.50;99.90;;;;;;5051490;28;20455;-75
2022/05/29 10:41:07;;;;;;;8.90;1.67;;;12.60;99.90;;;;;;5051702;28;20121;-71
2022/05/29 10:43:47;;;;;;;6.47;1.40;;;12.40;99.90;;;;;;5034507;28;20384;-71
2022/05/29 10:46:35;;;;;;;5.15;1.50;;;12.20;99.90;;;;;;5050959;28;20489;-71
2022/05/29 10:49:24;;;;;;;5.72;1.55;;;12.10;99.90;;;;;;5050220;28;20114;-70
2022/05/29 10:52:05;;;;;;;2.47;0.85;;;12.00;99.90;;;;;;5051285;28;20551;-73
2022/05/29 10:54:50;;;;;;;4.10;1.10;;;11.50;99.90;;;;;;5034085;28;20087;-73
2022/05/29 10:57:41;;;;;;;5.15;1.73;;;11.40;99.90;;;;;;5034251;28;20408;-74
2022/05/29 11:00:13;;;;;;;4.07;1.48;;;11.80;99.90;;;;;;5050776;28;20195;-74
2022/05/29 11:03:31;;;;;;;7.20;1.20;;;12.00;99.90;;;;;;5033944;28;20409;-74
2022/05/29 11:05:59;;;;;;;11.13;2.22;;;11.90;99.90;;;;;;5011757;28;20053;-73
2022/05/29 11:08:45;;;;;;;7.82;1.40;;;12.30;99.90;;;;;;5033539;28;20037;-75
2022/05/29 11:11:46;;;;;;;4.70;1.40;;;12.60;99.90;;;;;;5050525;28;20115;-75
2022/05/29 11:14:18;;;;;;;8.45;1.67;;;12.50;99.90;;;;;;5029924;28;20072;-72
2022/05/29 11:16:54;;;;;;;7.32;1.85;;;12.60;99.90;;;;;;5050836;28;20044;-74
2022/05/29 11:19:57;;;;;;;7.10;1.88;;;12.70;99.90;;;;;;5049971;28;20551;-74
2022/05/29 11:22:38;;;;;;;5.18;1.23;;;12.50;99.90;;;;;;5018959;28;20049;-74
2022/05/29 11:25:18;;;;;;;4.88;1.63;;;12.40;99.90;;;;;;5014023;28;20049;-73
2022/05/29 11:28:05;;;;;;;7.68;1.70;;;11.90;99.90;;;;;;5030403;28;20034;-72
2022/05/29 11:30:46;;;;;;;6.85;1.60;;;11.80;99.90;;;;;;5030062;28;20057;-74
2022/05/29 11:33:14;;;;;;;8.82;1.67;;;12.10;99.90;;;;;;5013884;28;20557;-71
2022/05/29 11:36:09;;;;;;;8.60;1.70;;;12.10;99.90;;;;;;5013720;28;20045;-72
2022/05/29 11:39:05;;;;;;;6.10;1.42;;;12.40;99.90;;;;;;5029910;28;20075;-74
2022/05/29 11:41:53;;;;;;;6.07;1.50;;;12.40;99.90;;;;;;5030102;28;20061;-73
2022/05/29 11:44:28;;;;;;;5.72;1.35;;;13.00;99.90;;;;;;5030145;28;20037;-76
2022/05/29 11:53:44;;;;;;;5.82;1.30;;;13.10;99.90;;;;;;5030281;28;20540;-74
2022/05/29 11:56:33;;;;;;;6.25;1.30;;;13.10;99.90;;;;;;4996239;28;20049;-76
2022/05/29 11:59:18;;;;;;;5.05;1.60;;;13.00;99.90;;;;;;5029957;28;20041;-75
2022/05/29 12:01:50;;;;;;;5.72;1.35;;;12.70;99.90;;;;;;5029651;28;20049;-73
2022/05/29 12:04:50;;;;;;;5.60;1.65;;;12.50;99.90;;;;;;5030064;28;20532;-75
2022/05/29 12:07:24;;;;;;;7.97;1.50;;;12.30;99.90;;;;;;5029867;28;20049;-76
2022/05/29 12:09:59;;;;;;;8.40;1.80;;;12.10;99.90;;;;;;5030302;28;20096;-75
2022/05/29 12:12:33;;;;;;;6.10;1.10;;;12.00;99.90;;;;;;5012943;28;20057;-77
2022/05/29 12:15:03;;;;;;;5.33;1.20;;;11.90;99.90;;;;;;5013607;28;20045;-75
2022/05/29 12:17:30;;;;;;;5.60;1.40;;;11.80;99.90;;;;;;5013350;28;20637;-73
2022/05/29 12:20:13;;;;;;;3.15;1.02;;;11.70;99.90;;;;;;5029753;28;20489;-76
2022/05/29 12:23:04;;;;;;;6.13;2.30;;;12.00;99.90;;;;;;5029317;28;20107;-75
2022/05/29 12:26:06;;;;;;;3.88;0.90;;;12.10;99.90;;;;;;5029636;28;20389;-75
2022/05/29 12:28:52;;;;;;;6.40;1.70;;;12.20;99.90;;;;;;5012989;28;20121;-77
2022/05/29 12:31:39;;;;;;;5.13;1.48;;;12.20;99.90;;;;;;5013229;28;20037;-75
2022/05/29 12:34:08;;;;;;;4.90;1.17;;;12.30;99.90;;;;;;5029452;28;20033;-75
2022/05/29 12:36:55;;;;;;;6.05;1.70;;;12.40;99.90;;;;;;5012720;28;20081;-76
2022/05/29 12:39:36;;;;;;;5.82;1.40;;;12.20;99.90;;;;;;5029359;28;20393;-75
2022/05/29 12:42:11;;;;;;;8.52;1.52;;;11.60;99.90;;;;;;5029156;28;20136;-76
2022/05/29 12:45:17;;;;;;;8.15;1.30;;;11.70;99.90;;;;;;5028182;28;20045;-74
2022/05/29 12:47:49;;;;;;;10.13;1.50;;;12.10;99.90;;;;;;5012636;28;20057;-76
2022/05/29 12:50:40;;;;;;;7.53;2.28;;;12.20;99.90;;;;;;5029233;28;20048;-74
2022/05/29 12:53:50;;;;;;;4.05;1.05;;;12.30;99.90;;;;;;5029599;28;20050;-75
2022/05/29 12:56:40;;;;;;;5.88;1.98;;;12.50;99.90;;;;;;5017667;28;20046;-75
2022/05/29 12:59:38;;;;;;;8.02;1.88;;;12.60;99.90;;;;;;5012436;28;20099;-73
2022/05/29 13:02:14;;;;;;;5.28;1.30;;;12.70;99.90;;;;;;5013122;28;20405;-73
2022/05/29 13:05:08;;;;;;;5.43;1.38;;;13.10;99.90;;;;;;5028798;28;20064;-75
2022/05/29 13:07:52;;;;;;;5.03;1.42;;;13.00;99.90;;;;;;5029252;28;20064;-76
2022/05/29 13:10:43;;;;;;;6.27;1.43;;;13.00;99.90;;;;;;5012746;28;20040;-77
2022/05/29 13:13:13;;;;;;;8.10;1.33;;;13.30;99.90;;;;;;5010010;28;20058;-75
2022/05/29 13:15:41;;;;;;;7.93;1.55;;;13.20;99.90;;;;;;5012508;28;20056;-76
2022/05/29 13:18:14;;;;;;;7.00;1.23;;;12.90;99.90;;;;;;5012925;28;20044;-74
2022/05/29 13:21:05;;;;;;;4.63;1.27;;;12.60;99.90;;;;;;5027989;28;20099;-73
2022/05/29 13:23:33;;;;;;;7.78;1.30;;;12.50;99.90;;;;;;5012265;28;20046;-73
2022/05/29 13:25:59;;;;;;;6.22;1.50;;;12.30;99.90;;;;;;5012583;28;20485;-72
2022/05/29 13:28:41;;;;;;;5.05;1.40;;;12.60;99.90;;;;;;5012719;28;20044;-74
2022/05/29 13:31:16;;;;;;;8.82;1.70;;;12.50;99.90;;;;;;5012754;28;20390;-73
2022/05/29 13:33:46;;;;;;;;;;;12.50;99.90;;;;;;5031659;28;20052;-75
2022/05/29 13:36:37;;;;;;;4.28;1.45;;;12.60;99.90;;;;;;5032657;28;20008;-74
2022/05/29 13:39:06;;;;;;;5.43;1.42;;;12.50;99.90;;;;;;5032678;28;20037;-74
2022/05/29 13:41:54;;;;;;;8.57;1.52;;;12.60;99.90;;;;;;4999790;28;20092;-74
2022/05/29 13:44:40;;;;;;;4.35;1.30;;;12.70;99.90;;;;;;5015827;28;20041;-73
2022/05/29 13:47:18;;;;;;;6.35;1.42;;;12.60;99.90;;;;;;5015904;28;20076;-74